Terminal Aerodrome Forecast
Issued by NWS Norman, OK

Home | Current Version | Previous Version | Text Only | Print | Product List | Glossary On
Versions: 1 2 3 4 5 6 7 8 9 10 11 12 13 14 15
000
FTUS44 KOUN 260520
TAFOKC
TAF
KOKC 260520Z 2606/2706 16014KT P6SM BKN013 BKN035
     FM261500 17015G22KT P6SM BKN019
     FM261800 18016G24KT P6SM BKN035 PROB30 2703/2706 TS BKN015CB=

USA.gov is the U.S. government's official web portal to all federal, state and local government web resources and services.